Aeroporto :
LOGIN :

Iscrizione | Disclaimer

   EN    FR    IT 

 










Sommario :    VFR   VFR Marginale   IFR   IFR Intensivo   IFR Molto Intensivo
Visibilità : 
Base nubi : 
>= 8 km
>= 3000ft
5 / 8 km
1000 / 3000 ft
1500m / 5 km
500 / 1000 ft
800 / 1500m
200 / 500 ft
< 800m
< 200 ft
Simboli :   Temporali  Nebbia  Neve Forte  Precipitazioni Forti  Vento > 20 kt
SIGMETs :   Varie  Temporali  Ghiacco  Turbolenza  Onda orograficha  Ceneri Vulcaniche







- Altitudine del aeroporto : 333 ft


LIPL - Ghedi Brescia (Mil)

ULTIMO METAR :
  • 231855Z 17002KT 9999 FEW040 SCT050 26/21 Q1020 RMK BKN VIS MIN 9999 WIND THR31 33003KT WIND THR13 05001KT BLU

METARs OBSOLETI :
  • 231755Z 27001KT 9999 SCT044 28/20 Q1019 RMK BKN SCT200 VIS MIN 9999 WIND THR31 14001KT WIND THR13 24002KT BLU
  • 231655Z 16003KT 9999 SCT042 29/20 Q1019 RMK BKN SCT200 VIS MIN 9999 WIND THR31 20002KT WIND THR13 16002KT BLU

TAF TAF LIPL
Valido dal 23 a 18 ore il 24 a 03 ore UTC


231700Z 2318/2403 16005KT 9000 SCT040
PROB30
TEMPO 2320/2324 SHRA FEW020CB BKN050
Nessun NOTAM noto per questo aeroporto.



MetMap, La meteo Aeronautica in un colpo d'occhio ! - Copyright ORBIFLY Dicembre 2007 - Disclaimer

ORBIFLY MET'MAP TEAM :

Programmazione e sviluppo : Alexandra Zaïnal
Concezione e sviluppo : Baudouin d'Aumeries
Co-Programmazione e sviluppo : Marc-Olivier Méhu
Supporto tecnico e logistico : Manuel Goepfert
Aiuto per la traduzione : Arnaldo La Scala

Contatto : metmap@orbifly.com




FONTI E CREDITI :

   NOAA